Time;durP1;ratioP1;P1;durP2;ratioP2;P2;SDS_P1;SDS_P2;PMS_P1;PMS_P2;Temp;Humidity;BMP_temperature;BMP_pressure;BME280_temperature;BME280_humidity;BME280_pressure;Samples;Min_cycle;Max_cycle;Signal;HPM_P1;HPM_P2
2022/11/04 00:01:08;;;;;;;7.25;3.88;;;;;;;;;;4934129;29;20050;-41
2022/11/04 00:03:33;;;;;;;7.60;4.20;;;;;;;;;;4933742;29;20471;-41
2022/11/04 00:05:59;;;;;;;5.93;4.25;;;;;;;;;;4933729;29;20067;-40
2022/11/04 00:08:25;;;;;;;7.70;3.38;;;;;;;;;;4933653;29;20490;-41
2022/11/04 00:13:41;;;;;;;8.25;3.78;;;;;;;;;;4934093;29;20474;-41
2022/11/04 00:18:50;;;;;;;5.57;3.53;;;;;;;;;;4933709;29;20100;-41
2022/11/04 00:29:27;;;;;;;4.40;2.75;;;;;;;;;;4934956;29;20403;-41
2022/11/04 00:34:37;;;;;;;3.63;2.33;;;;;;;;;;4937044;29;20038;-41
2022/11/04 00:37:02;;;;;;;3.85;2.75;;;;;;;;;;4951512;29;20055;-41
2022/11/04 00:39:28;;;;;;;4.72;3.10;;;;;;;;;;4936775;29;20498;-40
2022/11/04 00:41:53;;;;;;;6.43;2.95;;;;;;;;;;4936897;29;20032;-41
2022/11/04 00:44:19;;;;;;;5.40;2.55;;;;;;;;;;4936614;29;20040;-41
2022/11/04 00:46:44;;;;;;;3.80;2.75;;;;;;;;;;4951495;29;20030;-41
2022/11/04 00:49:10;;;;;;;3.33;2.53;;;;;;;;;;4936763;29;20024;-41
2022/11/04 00:51:35;;;;;;;3.50;1.80;;;;;;;;;;4936688;29;20024;-41
2022/11/04 00:54:01;;;;;;;3.78;2.20;;;;;;;;;;4936663;29;20051;-40
2022/11/04 00:56:27;;;;;;;2.25;1.70;;;;;;;;;;4936534;29;20020;-42
2022/11/04 00:58:52;;;;;;;7.30;2.13;;;;;;;;;;4936605;29;20035;-40
2022/11/04 01:01:18;;;;;;;4.60;1.73;;;;;;;;;;4935478;29;20016;-40
2022/11/04 01:03:44;;;;;;;4.22;2.35;;;;;;;;;;5010281;23;20499;-39
2022/11/04 01:06:10;;;;;;;2.97;2.25;;;;;;;;;;4898895;29;20056;-40
2022/11/04 01:08:35;;;;;;;3.85;2.70;;;;;;;;;;4898790;29;20043;-40
2022/11/04 01:11:05;;;;;;;3.80;2.05;;;;;;;;;;4898663;29;20024;-41
2022/11/04 01:13:31;;;;;;;5.55;2.33;;;;;;;;;;4898929;29;20028;-40
2022/11/04 01:15:57;;;;;;;3.90;2.67;;;;;;;;;;4898812;29;20096;-41
2022/11/04 01:18:23;;;;;;;5.55;3.30;;;;;;;;;;4897319;29;20033;-40
2022/11/04 01:20:48;;;;;;;5.22;3.03;;;;;;;;;;4898812;29;20352;-40
2022/11/04 01:23:13;;;;;;;5.30;3.22;;;;;;;;;;4898439;29;20059;-41
2022/11/04 01:25:40;;;;;;;8.68;3.28;;;;;;;;;;4898310;29;20037;-40
2022/11/04 01:28:06;;;;;;;5.00;3.17;;;;;;;;;;4898355;29;20021;-41
2022/11/04 01:30:32;;;;;;;6.53;3.40;;;;;;;;;;4898643;29;20028;-40
2022/11/04 01:32:57;;;;;;;4.78;3.20;;;;;;;;;;4898158;29;20032;-40
2022/11/04 01:35:23;;;;;;;7.10;3.40;;;;;;;;;;4898273;29;20149;-40
2022/11/04 01:37:48;;;;;;;8.02;3.88;;;;;;;;;;4898225;29;20622;-40
2022/11/04 01:40:13;;;;;;;7.63;3.85;;;;;;;;;;4897501;29;20032;-40
2022/11/04 01:42:39;;;;;;;9.35;3.35;;;;;;;;;;4896727;29;20033;-40
2022/11/04 01:45:11;;;;;;;8.13;3.72;;;;;;;;;;4897874;29;20033;-41
2022/11/04 01:47:42;;;;;;;6.43;3.80;;;;;;;;;;4897972;29;20528;-40
2022/11/04 01:50:11;;;;;;;9.23;4.68;;;;;;;;;;4898193;29;20076;-40
2022/11/04 01:52:39;;;;;;;7.28;3.33;;;;;;;;;;4898220;29;20100;-40
2022/11/04 01:55:07;;;;;;;7.53;3.90;;;;;;;;;;4897802;29;20471;-40
2022/11/04 01:57:34;;;;;;;7.25;4.60;;;;;;;;;;4897800;29;20021;-40
2022/11/04 02:00:00;;;;;;;8.48;4.35;;;;;;;;;;4897745;29;20027;-40
2022/11/04 02:02:26;;;;;;;6.18;3.47;;;;;;;;;;4897672;29;20043;-43
2022/11/04 02:04:51;;;;;;;5.90;3.53;;;;;;;;;;4897632;29;20056;-40
2022/11/04 02:07:17;;;;;;;8.05;4.18;;;;;;;;;;4897843;29;20518;-40
2022/11/04 02:09:43;;;;;;;5.32;3.25;;;;;;;;;;4897945;29;20161;-40
2022/11/04 02:14:53;;;;;;;9.80;4.03;;;;;;;;;;4897800;29;20044;-41
2022/11/04 02:17:19;;;;;;;4.35;2.95;;;;;;;;;;4897455;29;20107;-39
2022/11/04 02:19:56;;;;;;;8.73;4.05;;;;;;;;;;4897548;29;20108;-40
2022/11/04 02:22:40;;;;;;;6.15;3.65;;;;;;;;;;4897397;29;20062;-40
2022/11/04 02:25:06;;;;;;;4.07;2.92;;;;;;;;;;4897284;29;20041;-40
2022/11/04 02:27:51;;;;;;;4.53;3.38;;;;;;;;;;4897292;29;20036;-40
2022/11/04 02:30:18;;;;;;;5.60;2.75;;;;;;;;;;4887032;29;20067;-40
2022/11/04 02:32:51;;;;;;;7.70;3.65;;;;;;;;;;4897302;29;20017;-40
2022/11/04 02:35:19;;;;;;;4.53;3.47;;;;;;;;;;4896113;29;20037;-40
2022/11/04 02:38:03;;;;;;;4.82;3.20;;;;;;;;;;4897419;29;20063;-40
2022/11/04 02:40:29;;;;;;;7.10;3.65;;;;;;;;;;4897045;29;20073;-40
2022/11/04 02:43:01;;;;;;;5.50;3.30;;;;;;;;;;4897251;29;20052;-40
2022/11/04 02:45:27;;;;;;;4.53;3.00;;;;;;;;;;4896965;29;20048;-40
2022/11/04 02:48:07;;;;;;;4.43;3.80;;;;;;;;;;4897346;29;20028;-40
2022/11/04 02:50:37;;;;;;;6.35;3.65;;;;;;;;;;4897113;29;20390;-40
2022/11/04 02:53:02;;;;;;;7.93;4.60;;;;;;;;;;4896756;29;20043;-40
2022/11/04 02:55:40;;;;;;;3.88;2.67;;;;;;;;;;4897378;29;20036;-40
2022/11/04 02:58:08;;;;;;;4.28;3.08;;;;;;;;;;4896724;29;20040;-41
2022/11/04 03:00:35;;;;;;;5.20;2.83;;;;;;;;;;4896859;29;20035;-40
2022/11/04 03:03:12;;;;;;;6.00;3.60;;;;;;;;;;4896690;29;20032;-40
2022/11/04 03:05:39;;;;;;;7.78;3.78;;;;;;;;;;4896381;29;20545;-40
2022/11/04 03:08:10;;;;;;;4.18;2.83;;;;;;;;;;4896695;29;20033;-40
2022/11/04 03:10:37;;;;;;;4.70;3.22;;;;;;;;;;4896600;29;20061;-40
2022/11/04 03:13:05;;;;;;;6.38;3.90;;;;;;;;;;4896478;29;20035;-40
2022/11/04 03:15:33;;;;;;;3.88;2.67;;;;;;;;;;4896789;29;20136;-40
2022/11/04 03:18:19;;;;;;;4.10;3.17;;;;;;;;;;4896444;29;20053;-41
2022/11/04 03:20:45;;;;;;;2.83;2.03;;;;;;;;;;4886368;29;20049;-40
2022/11/04 03:23:10;;;;;;;4.13;2.50;;;;;;;;;;4896453;29;20076;-40
2022/11/04 03:25:38;;;;;;;4.78;2.28;;;;;;;;;;4896548;29;20060;-39
2022/11/04 03:28:06;;;;;;;3.80;2.38;;;;;;;;;;4896415;29;20024;-40
2022/11/04 03:30:38;;;;;;;7.88;2.53;;;;;;;;;;4896396;29;20075;-40
2022/11/04 03:33:18;;;;;;;5.28;3.40;;;;;;;;;;4896249;29;20039;-40
2022/11/04 03:35:43;;;;;;;7.10;3.13;;;;;;;;;;4895128;29;20033;-40
2022/11/04 03:38:09;;;;;;;2.47;1.95;;;;;;;;;;4896298;29;20537;-40
2022/11/04 03:40:34;;;;;;;3.33;2.13;;;;;;;;;;4896542;29;20037;-40
2022/11/04 03:43:29;;;;;;;2.78;2.15;;;;;;;;;;4896188;29;20543;-43
2022/11/04 03:45:55;;;;;;;5.63;2.55;;;;;;;;;;4883848;29;20139;-40
2022/11/04 03:48:21;;;;;;;4.40;2.72;;;;;;;;;;4896252;29;20420;-40
2022/11/04 03:50:47;;;;;;;6.85;2.15;;;;;;;;;;4896295;29;20040;-40
2022/11/04 03:53:14;;;;;;;3.67;2.05;;;;;;;;;;4896079;29;20032;-40
2022/11/04 03:55:49;;;;;;;4.03;2.30;;;;;;;;;;4896091;29;20130;-40
2022/11/04 03:58:23;;;;;;;2.78;2.50;;;;;;;;;;4896145;29;20024;-40
2022/11/04 04:00:51;;;;;;;3.20;1.77;;;;;;;;;;4896120;29;20059;-40
2022/11/04 04:03:19;;;;;;;9.63;2.53;;;;;;;;;;4896030;29;20099;-40
2022/11/04 04:05:45;;;;;;;4.78;2.28;;;;;;;;;;4899410;29;20514;-40
2022/11/04 04:08:46;;;;;;;2.33;1.38;;;;;;;;;;4899644;29;20047;-41
2022/11/04 04:11:17;;;;;;;3.90;2.33;;;;;;;;;;4841638;29;20033;-40
2022/11/04 04:13:49;;;;;;;2.17;1.50;;;;;;;;;;4889888;29;20058;-40
2022/11/04 04:16:26;;;;;;;2.63;2.33;;;;;;;;;;4899585;29;20116;-40
2022/11/04 04:19:10;;;;;;;3.35;1.85;;;;;;;;;;4899869;29;20036;-40
2022/11/04 04:21:40;;;;;;;4.45;3.10;;;;;;;;;;4899627;29;20032;-40
2022/11/04 04:29:35;;;;;;;4.03;2.35;;;;;;;;;;4899659;29;20032;-40
2022/11/04 04:32:02;;;;;;;4.50;2.60;;;;;;;;;;4899284;29;20027;-40
2022/11/04 04:34:29;;;;;;;2.70;1.98;;;;;;;;;;4899531;29;20036;-40
2022/11/04 04:36:54;;;;;;;3.55;2.97;;;;;;;;;;4899309;29;20107;-40
2022/11/04 04:44:58;;;;;;;2.67;1.63;;;;;;;;;;4899009;29;20105;-42
2022/11/04 04:47:25;;;;;;;2.85;2.20;;;;;;;;;;4899103;29;20032;-40
2022/11/04 04:49:55;;;;;;;3.20;1.90;;;;;;;;;;4899161;29;20021;-41
2022/11/04 04:52:22;;;;;;;3.28;1.85;;;;;;;;;;4898891;29;20025;-40
2022/11/04 04:54:47;;;;;;;5.05;2.22;;;;;;;;;;4899227;29;20419;-40
2022/11/04 04:57:13;;;;;;;6.15;1.98;;;;;;;;;;4899100;29;20036;-41
2022/11/04 04:59:38;;;;;;;2.67;1.58;;;;;;;;;;4898901;29;20099;-39
2022/11/04 05:02:04;;;;;;;4.28;1.83;;;;;;;;;;4898739;29;20056;-40
2022/11/04 05:04:29;;;;;;;5.10;1.70;;;;;;;;;;4898491;29;20045;-41
2022/11/04 05:06:55;;;;;;;5.30;2.47;;;;;;;;;;4899104;29;20043;-40
2022/11/04 05:09:20;;;;;;;6.80;2.55;;;;;;;;;;4898935;29;20168;-40
2022/11/04 05:11:45;;;;;;;3.38;2.28;;;;;;;;;;4898658;29;20040;-40
2022/11/04 05:14:11;;;;;;;3.38;1.95;;;;;;;;;;4898493;29;20253;-41
2022/11/04 05:16:36;;;;;;;6.28;2.90;;;;;;;;;;4897601;29;20103;-40
2022/11/04 05:19:02;;;;;;;1.75;1.45;;;;;;;;;;4898648;29;20073;-40
2022/11/04 05:21:27;;;;;;;2.15;1.90;;;;;;;;;;4898498;29;20104;-40
2022/11/04 05:23:53;;;;;;;8.27;2.47;;;;;;;;;;4898434;29;20733;-40
2022/11/04 05:26:18;;;;;;;2.55;1.73;;;;;;;;;;4898218;29;20044;-40
2022/11/04 05:28:44;;;;;;;3.08;1.77;;;;;;;;;;4898419;29;20032;-40
2022/11/04 05:31:09;;;;;;;5.50;2.28;;;;;;;;;;4898299;29;20033;-40
2022/11/04 05:33:35;;;;;;;5.50;2.67;;;;;;;;;;4898166;29;20027;-40
2022/11/04 05:36:06;;;;;;;1.70;1.55;;;;;;;;;;4898379;29;20116;-40
2022/11/04 05:38:31;;;;;;;9.88;3.05;;;;;;;;;;4898459;29;20084;-41
2022/11/04 05:40:57;;;;;;;3.60;2.17;;;;;;;;;;4898120;29;20025;-40
2022/11/04 05:43:22;;;;;;;10.65;2.67;;;;;;;;;;4898240;29;20032;-41
2022/11/04 05:45:48;;;;;;;1.90;1.25;;;;;;;;;;4896659;29;20127;-40
2022/11/04 05:48:13;;;;;;;1.20;1.10;;;;;;;;;;4898170;29;20028;-40
2022/11/04 05:50:41;;;;;;;2.53;1.58;;;;;;;;;;4897904;29;20048;-40
2022/11/04 05:53:07;;;;;;;8.52;2.15;;;;;;;;;;4897898;29;20047;-40
2022/11/04 05:55:32;;;;;;;2.28;1.50;;;;;;;;;;4897839;29;20092;-40
2022/11/04 05:57:58;;;;;;;2.03;1.00;;;;;;;;;;4897831;29;20032;-41
2022/11/04 06:00:25;;;;;;;2.03;1.30;;;;;;;;;;4897718;29;20028;-40
2022/11/04 06:02:50;;;;;;;2.88;1.85;;;;;;;;;;4897618;29;20080;-40
2022/11/04 06:05:16;;;;;;;2.03;1.10;;;;;;;;;;4897443;29;20048;-40
2022/11/04 06:07:41;;;;;;;2.97;1.05;;;;;;;;;;4897838;29;20033;-40
2022/11/04 06:10:07;;;;;;;1.67;1.35;;;;;;;;;;4897734;29;20056;-40
2022/11/04 06:12:32;;;;;;;2.30;1.23;;;;;;;;;;4897823;29;20028;-40
2022/11/04 06:14:58;;;;;;;6.43;1.13;;;;;;;;;;4896207;29;20379;-39
2022/11/04 06:17:23;;;;;;;2.65;1.30;;;;;;;;;;4897416;29;20033;-39
2022/11/04 06:19:49;;;;;;;1.55;1.42;;;;;;;;;;4896198;29;20032;-40
2022/11/04 06:22:15;;;;;;;1.90;1.38;;;;;;;;;;4897249;29;20029;-40
2022/11/04 06:24:41;;;;;;;2.10;1.70;;;;;;;;;;4897212;29;20029;-40
2022/11/04 06:27:07;;;;;;;1.58;1.00;;;;;;;;;;4897146;29;20052;-40
2022/11/04 06:29:33;;;;;;;1.23;0.32;;;;;;;;;;4897215;29;20156;-39
2022/11/04 06:31:58;;;;;;;2.17;1.30;;;;;;;;;;4897353;29;20116;-40
2022/11/04 06:34:24;;;;;;;2.60;1.23;;;;;;;;;;4897183;29;20056;-40
2022/11/04 06:36:52;;;;;;;6.68;1.88;;;;;;;;;;4897061;29;20029;-39
2022/11/04 06:39:18;;;;;;;2.58;1.55;;;;;;;;;;4897038;29;20039;-42
2022/11/04 06:41:44;;;;;;;2.63;1.55;;;;;;;;;;4897379;29;20036;-39
2022/11/04 06:44:09;;;;;;;2.45;1.27;;;;;;;;;;4897125;29;20033;-40
2022/11/04 06:46:36;;;;;;;7.63;1.88;;;;;;;;;;4897188;29;20055;-40
2022/11/04 06:49:03;;;;;;;2.63;1.08;;;;;;;;;;4897146;29;20100;-40
2022/11/04 06:51:29;;;;;;;1.00;0.90;;;;;;;;;;4896884;29;20040;-39
2022/11/04 06:53:54;;;;;;;1.85;1.33;;;;;;;;;;4895445;29;20499;-40
2022/11/04 06:56:20;;;;;;;3.17;1.52;;;;;;;;;;4895467;29;20475;-40
2022/11/04 06:58:49;;;;;;;2.70;1.15;;;;;;;;;;4896731;29;20024;-39
2022/11/04 07:01:16;;;;;;;1.75;1.25;;;;;;;;;;4896747;29;20047;-40
2022/11/04 07:03:42;;;;;;;5.40;2.35;;;;;;;;;;4896617;29;20023;-40
2022/11/04 07:06:11;;;;;;;1.95;1.20;;;;;;;;;;4896338;29;20052;-40
2022/11/04 07:08:37;;;;;;;2.10;1.48;;;;;;;;;;4896852;29;20032;-39
2022/11/04 07:11:03;;;;;;;4.35;1.73;;;;;;;;;;4896624;29;20401;-40
2022/11/04 07:13:28;;;;;;;7.88;2.08;;;;;;;;;;4896508;29;20028;-40
2022/11/04 07:15:54;;;;;;;9.45;1.20;;;;;;;;;;4896574;29;20036;-40
2022/11/04 07:18:19;;;;;;;2.45;1.10;;;;;;;;;;4896484;29;20028;-40
2022/11/04 07:20:45;;;;;;;3.50;1.40;;;;;;;;;;4896573;29;20036;-39
2022/11/04 07:23:11;;;;;;;4.93;2.65;;;;;;;;;;4895201;29;20031;-39
2022/11/04 07:25:37;;;;;;;3.58;1.98;;;;;;;;;;4896622;29;20051;-39
2022/11/04 07:28:02;;;;;;;4.35;1.55;;;;;;;;;;4896554;29;20367;-40
2022/11/04 07:30:28;;;;;;;2.67;1.20;;;;;;;;;;4896482;29;20562;-40
2022/11/04 07:32:54;;;;;;;2.60;1.48;;;;;;;;;;4896428;29;20040;-40
2022/11/04 07:35:20;;;;;;;1.35;1.10;;;;;;;;;;4896453;29;20036;-39
2022/11/04 07:37:46;;;;;;;2.05;1.58;;;;;;;;;;4896359;29;20503;-40
2022/11/04 07:40:12;;;;;;;2.78;1.55;;;;;;;;;;4899371;29;20045;-40
2022/11/04 07:42:37;;;;;;;1.95;1.42;;;;;;;;;;4900436;29;20352;-40
2022/11/04 07:45:06;;;;;;;5.68;1.30;;;;;;;;;;4898770;29;20041;-40
2022/11/04 07:47:32;;;;;;;2.72;1.60;;;;;;;;;;4900162;29;20420;-39
2022/11/04 07:49:58;;;;;;;0.65;0.55;;;;;;;;;;4900122;29;20037;-40
2022/11/04 07:52:24;;;;;;;1.92;1.00;;;;;;;;;;4900045;29;20066;-40
2022/11/04 07:54:50;;;;;;;1.75;1.08;;;;;;;;;;4900064;29;20044;-40
2022/11/04 07:57:18;;;;;;;1.67;1.23;;;;;;;;;;4899890;29;20028;-40
2022/11/04 07:59:44;;;;;;;2.10;1.55;;;;;;;;;;4898828;29;20032;-39
2022/11/04 08:02:10;;;;;;;7.00;1.55;;;;;;;;;;4899912;29;20076;-40
2022/11/04 08:04:35;;;;;;;4.32;2.20;;;;;;;;;;4898434;29;20052;-40
2022/11/04 08:07:01;;;;;;;4.80;1.85;;;;;;;;;;4899787;29;20036;-41
2022/11/04 08:09:27;;;;;;;4.43;1.65;;;;;;;;;;4899874;29;20032;-39
2022/11/04 08:11:52;;;;;;;3.22;2.05;;;;;;;;;;4899798;29;20494;-40
2022/11/04 08:14:18;;;;;;;3.78;1.40;;;;;;;;;;4898640;29;20455;-39
2022/11/04 08:16:43;;;;;;;7.53;1.50;;;;;;;;;;4899663;29;20044;-39
2022/11/04 08:19:09;;;;;;;4.45;2.25;;;;;;;;;;4899497;29;20380;-40
2022/11/04 08:21:35;;;;;;;1.50;1.25;;;;;;;;;;4899613;29;20076;-39
2022/11/04 08:24:04;;;;;;;3.85;2.35;;;;;;;;;;4899433;29;20040;-40
2022/11/04 08:26:30;;;;;;;4.07;1.65;;;;;;;;;;4899364;29;20040;-40
2022/11/04 08:28:56;;;;;;;4.88;2.15;;;;;;;;;;4899715;29;20025;-40
2022/11/04 08:31:24;;;;;;;8.88;2.30;;;;;;;;;;4899582;29;20047;-40
2022/11/04 08:33:50;;;;;;;2.33;1.60;;;;;;;;;;4899655;29;20028;-40
2022/11/04 08:36:19;;;;;;;2.50;1.48;;;;;;;;;;4899341;29;20523;-39
2022/11/04 08:38:45;;;;;;;8.20;2.70;;;;;;;;;;4898009;29;20068;-39
2022/11/04 08:41:11;;;;;;;5.45;2.35;;;;;;;;;;4899491;29;20032;-40
2022/11/04 08:43:37;;;;;;;3.97;2.58;;;;;;;;;;4898269;29;20376;-40
2022/11/04 08:46:04;;;;;;;4.95;1.52;;;;;;;;;;4898996;29;20036;-40
2022/11/04 08:48:30;;;;;;;6.53;2.25;;;;;;;;;;4899149;29;20032;-40
2022/11/04 08:50:59;;;;;;;7.85;2.35;;;;;;;;;;4898906;29;20025;-40
2022/11/04 08:53:28;;;;;;;6.75;2.33;;;;;;;;;;4899092;29;20024;-39
2022/11/04 08:55:54;;;;;;;4.45;2.05;;;;;;;;;;4899021;29;20025;-40
2022/11/04 08:58:21;;;;;;;4.60;1.92;;;;;;;;;;4898885;29;20024;-40
2022/11/04 09:00:48;;;;;;;2.25;1.83;;;;;;;;;;4899128;29;20662;-40
2022/11/04 09:03:14;;;;;;;4.88;1.70;;;;;;;;;;4898975;29;20037;-40
2022/11/04 09:05:43;;;;;;;4.63;1.80;;;;;;;;;;4898662;29;20047;-40
2022/11/04 09:08:10;;;;;;;7.82;2.70;;;;;;;;;;4898613;29;20032;-41
2022/11/04 09:10:40;;;;;;;5.75;3.13;;;;;;;;;;4898788;29;20163;-40
2022/11/04 09:13:06;;;;;;;1.52;1.42;;;;;;;;;;4898612;29;20036;-40
2022/11/04 09:15:32;;;;;;;5.22;2.13;;;;;;;;;;4898633;29;20029;-39
2022/11/04 09:17:57;;;;;;;5.15;2.47;;;;;;;;;;4898625;29;20044;-40
2022/11/04 09:20:23;;;;;;;3.25;1.88;;;;;;;;;;4898431;29;20035;-40
2022/11/04 09:22:49;;;;;;;4.03;2.70;;;;;;;;;;4898540;29;20063;-40
2022/11/04 09:25:15;;;;;;;2.83;1.70;;;;;;;;;;4898505;29;20029;-40
2022/11/04 09:27:41;;;;;;;7.38;2.22;;;;;;;;;;4898665;29;20036;-40
2022/11/04 09:30:07;;;;;;;6.60;2.35;;;;;;;;;;4898320;29;20618;-40
2022/11/04 09:32:33;;;;;;;4.63;1.88;;;;;;;;;;4898600;29;20043;-40
2022/11/04 09:34:59;;;;;;;3.50;1.95;;;;;;;;;;4898252;29;20100;-40
2022/11/04 09:37:24;;;;;;;4.63;2.35;;;;;;;;;;4898092;29;20064;-40
2022/11/04 09:39:50;;;;;;;3.25;1.55;;;;;;;;;;4898206;29;20124;-40
2022/11/04 09:42:19;;;;;;;3.47;1.60;;;;;;;;;;4896755;29;20080;-40
2022/11/04 09:44:57;;;;;;;5.00;2.08;;;;;;;;;;4898045;29;20092;-40
2022/11/04 09:47:23;;;;;;;5.85;3.30;;;;;;;;;;4898231;29;20040;-40
2022/11/04 09:49:52;;;;;;;2.63;1.85;;;;;;;;;;4897919;29;20031;-41
2022/11/04 09:52:23;;;;;;;5.25;2.28;;;;;;;;;;4896683;29;20036;-40
2022/11/04 09:55:07;;;;;;;6.97;2.22;;;;;;;;;;4897851;29;20044;-40
2022/11/04 09:57:33;;;;;;;1.60;1.48;;;;;;;;;;4897820;29;20480;-39
2022/11/04 09:59:59;;;;;;;1.73;1.40;;;;;;;;;;4897826;29;20033;-40
2022/11/04 10:02:30;;;;;;;2.75;1.40;;;;;;;;;;4897264;29;20051;-39
2022/11/04 10:05:14;;;;;;;1.95;1.85;;;;;;;;;;4897325;29;20108;-40
2022/11/04 10:07:58;;;;;;;2.22;1.88;;;;;;;;;;4897705;29;20032;-40
2022/11/04 10:10:44;;;;;;;4.25;1.15;;;;;;;;;;4897806;29;20033;-39
2022/11/04 10:13:16;;;;;;;3.25;1.67;;;;;;;;;;4897760;29;20041;-39
2022/11/04 10:15:42;;;;;;;5.43;2.78;;;;;;;;;;4897754;29;20040;-39
2022/11/04 10:18:14;;;;;;;0.85;0.70;;;;;;;;;;4897649;29;20467;-40
2022/11/04 10:20:42;;;;;;;6.97;1.60;;;;;;;;;;4897665;29;20036;-40
2022/11/04 10:23:16;;;;;;;1.75;0.95;;;;;;;;;;4897293;29;20038;-40
2022/11/04 10:25:42;;;;;;;3.92;1.95;;;;;;;;;;4897588;29;20095;-39
2022/11/04 10:28:12;;;;;;;1.45;1.17;;;;;;;;;;4897505;29;20020;-39
2022/11/04 10:30:40;;;;;;;1.38;0.50;;;;;;;;;;4897301;29;20036;-40
2022/11/04 10:33:05;;;;;;;0.65;0.65;;;;;;;;;;4895829;29;20490;-40
2022/11/04 10:35:31;;;;;;;0.22;0.15;;;;;;;;;;4897169;29;20032;-40
2022/11/04 10:37:59;;;;;;;3.00;0.60;;;;;;;;;;4897205;29;20021;-41
2022/11/04 10:40:35;;;;;;;1.83;0.77;;;;;;;;;;4896685;29;20043;-40
2022/11/04 10:43:03;;;;;;;2.22;0.73;;;;;;;;;;4896651;29;20040;-40
2022/11/04 10:45:42;;;;;;;1.25;0.75;;;;;;;;;;4896701;29;20378;-40
2022/11/04 10:48:11;;;;;;;1.73;0.90;;;;;;;;;;4896125;29;20487;-43
2022/11/04 10:50:40;;;;;;;2.35;0.88;;;;;;;;;;4896317;29;20036;-40
2022/11/04 10:53:09;;;;;;;0.93;0.70;;;;;;;;;;4896173;29;20535;-40
2022/11/04 10:55:37;;;;;;;2.58;1.10;;;;;;;;;;4896491;29;20029;-40
2022/11/04 10:58:11;;;;;;;1.15;0.93;;;;;;;;;;4896444;29;20033;-40
2022/11/04 11:00:37;;;;;;;2.78;1.23;;;;;;;;;;4896288;29;20040;-41
2022/11/04 11:03:20;;;;;;;1.73;1.00;;;;;;;;;;4896137;29;20028;-39
2022/11/04 11:05:48;;;;;;;1.00;0.80;;;;;;;;;;4895849;29;20551;-40
2022/11/04 11:08:26;;;;;;;2.75;1.15;;;;;;;;;;4896090;29;20060;-40
2022/11/04 11:11:03;;;;;;;2.72;1.60;;;;;;;;;;4896224;29;20031;-40
2022/11/04 11:13:41;;;;;;;1.50;1.23;;;;;;;;;;4895832;29;20036;-40
2022/11/04 11:16:25;;;;;;;2.38;0.90;;;;;;;;;;4895584;29;20040;-40
2022/11/04 11:19:11;;;;;;;1.45;1.05;;;;;;;;;;4895987;29;20037;-40
2022/11/04 11:21:51;;;;;;;6.72;1.67;;;;;;;;;;4895842;29;20043;-40
2022/11/04 11:24:32;;;;;;;2.63;1.10;;;;;;;;;;4895960;29;20037;-40
2022/11/04 11:27:11;;;;;;;2.20;0.93;;;;;;;;;;4895744;29;20040;-40
2022/11/04 11:29:54;;;;;;;6.03;1.58;;;;;;;;;;4895675;29;20016;-40
2022/11/04 11:32:31;;;;;;;6.70;1.42;;;;;;;;;;4895533;29;20025;-42
2022/11/04 11:35:14;;;;;;;2.78;1.92;;;;;;;;;;4895685;29;20025;-40
2022/11/04 11:37:50;;;;;;;3.00;1.27;;;;;;;;;;4895861;29;20481;-40
2022/11/04 11:40:36;;;;;;;4.10;1.27;;;;;;;;;;4895730;29;20033;-40
2022/11/04 11:43:29;;;;;;;2.80;1.50;;;;;;;;;;4895532;29;20024;-40
2022/11/04 11:46:09;;;;;;;5.20;1.55;;;;;;;;;;4895276;29;20059;-40
2022/11/04 11:48:49;;;;;;;3.03;1.60;;;;;;;;;;4895293;29;20104;-40
2022/11/04 11:51:38;;;;;;;2.00;1.48;;;;;;;;;;4895559;29;20040;-40
2022/11/04 11:54:32;;;;;;;5.65;1.88;;;;;;;;;;4895685;29;20035;-40
2022/11/04 11:57:25;;;;;;;1.10;0.88;;;;;;;;;;4895662;29;20044;-40
2022/11/04 12:00:08;;;;;;;5.28;2.38;;;;;;;;;;4895123;29;20045;-40
2022/11/04 12:03:02;;;;;;;2.13;1.30;;;;;;;;;;4895560;29;20036;-40
2022/11/04 12:05:44;;;;;;;3.00;1.02;;;;;;;;;;4895261;29;20045;-40
2022/11/04 12:08:39;;;;;;;4.00;2.13;;;;;;;;;;4895516;29;20043;-40
2022/11/04 12:11:10;;;;;;;4.13;1.98;;;;;;;;;;4895331;29;20028;-39
2022/11/04 12:13:47;;;;;;;2.00;1.80;;;;;;;;;;4895318;29;20479;-39
2022/11/04 12:16:13;;;;;;;6.50;2.03;;;;;;;;;;4895426;29;20028;-40
2022/11/04 12:18:48;;;;;;;5.90;1.85;;;;;;;;;;4895331;29;20054;-39
2022/11/04 12:21:20;;;;;;;5.18;1.60;;;;;;;;;;4895250;29;20044;-40
2022/11/04 12:24:09;;;;;;;3.70;1.45;;;;;;;;;;4894835;29;20036;-40
2022/11/04 12:26:52;;;;;;;3.50;1.48;;;;;;;;;;4898150;29;20487;-39
2022/11/04 12:29:39;;;;;;;4.30;1.75;;;;;;;;;;4898670;29;20039;-40
2022/11/04 12:32:27;;;;;;;16.63;2.63;;;;;;;;;;4897559;29;20051;-39
2022/11/04 12:34:59;;;;;;;1.98;1.08;;;;;;;;;;4898660;29;20111;-39
2022/11/04 12:37:40;;;;;;;10.35;1.98;;;;;;;;;;4898610;29;20125;-39
2022/11/04 12:40:06;;;;;;;1.88;1.45;;;;;;;;;;4898588;29;20021;-40
2022/11/04 12:42:38;;;;;;;2.63;1.23;;;;;;;;;;4898622;29;20031;-41
2022/11/04 12:45:06;;;;;;;4.50;1.42;;;;;;;;;;4898421;29;20104;-39
2022/11/04 12:47:45;;;;;;;1.77;1.02;;;;;;;;;;4898352;29;20039;-40
2022/11/04 12:50:37;;;;;;;3.15;1.48;;;;;;;;;;4898442;29;20024;-40
2022/11/04 12:53:03;;;;;;;1.92;1.02;;;;;;;;;;4898438;29;20060;-40
2022/11/04 12:55:42;;;;;;;6.97;2.20;;;;;;;;;;4898131;29;20059;-40
2022/11/04 12:58:16;;;;;;;1.30;1.20;;;;;;;;;;4898205;29;20044;-39
2022/11/04 13:00:44;;;;;;;4.38;1.50;;;;;;;;;;4898608;29;20032;-40
2022/11/04 13:03:32;;;;;;;3.63;1.52;;;;;;;;;;4897749;29;20024;-39
2022/11/04 13:06:03;;;;;;;2.67;1.33;;;;;;;;;;4896681;29;20139;-40
2022/11/04 13:08:40;;;;;;;5.60;1.83;;;;;;;;;;4897935;29;20033;-40
2022/11/04 13:11:21;;;;;;;2.95;1.20;;;;;;;;;;4898018;29;20037;-40
2022/11/04 13:13:57;;;;;;;5.82;1.38;;;;;;;;;;4898118;29;20120;-40
2022/11/04 13:16:23;;;;;;;5.18;1.42;;;;;;;;;;4897949;29;20463;-40
2022/11/04 13:18:49;;;;;;;1.10;0.95;;;;;;;;;;4898009;29;20061;-40
2022/11/04 13:21:17;;;;;;;0.60;0.43;;;;;;;;;;4897946;29;20041;-39
2022/11/04 13:23:48;;;;;;;0.80;0.80;;;;;;;;;;4897927;29;20025;-40
2022/11/04 13:26:15;;;;;;;0.45;0.38;;;;;;;;;;4897740;29;20045;-40
2022/11/04 13:28:41;;;;;;;0.52;0.50;;;;;;;;;;4897782;29;20440;-40
2022/11/04 13:31:21;;;;;;;4.07;0.40;;;;;;;;;;4897592;29;20044;-41
2022/11/04 13:34:02;;;;;;;2.65;0.65;;;;;;;;;;4897687;29;20035;-40
2022/11/04 13:36:43;;;;;;;0.63;0.40;;;;;;;;;;4896534;29;20043;-40
2022/11/04 13:39:23;;;;;;;0.63;0.38;;;;;;;;;;4897477;29;20025;-40
2022/11/04 13:42:09;;;;;;;1.67;0.45;;;;;;;;;;4897773;29;20067;-41
2022/11/04 13:44:38;;;;;;;7.03;0.75;;;;;;;;;;4887257;29;20056;-40
2022/11/04 13:47:10;;;;;;;0.15;0.15;;;;;;;;;;4897648;29;20079;-40
2022/11/04 13:49:37;;;;;;;1.30;0.28;;;;;;;;;;4897343;29;20041;-40
2022/11/04 13:52:08;;;;;;;2.05;0.35;;;;;;;;;;4897135;29;20515;-39
2022/11/04 13:54:36;;;;;;;0.50;0.28;;;;;;;;;;4897248;29;20643;-40
2022/11/04 13:57:07;;;;;;;1.10;0.38;;;;;;;;;;4897285;29;20025;-40
2022/11/04 13:59:36;;;;;;;0.32;0.30;;;;;;;;;;4897401;29;20383;-40
2022/11/04 14:02:11;;;;;;;0.68;0.40;;;;;;;;;;4897087;29;20103;-40
2022/11/04 14:04:38;;;;;;;0.20;0.20;;;;;;;;;;4895513;29;20399;-39
2022/11/04 14:07:10;;;;;;;1.95;0.52;;;;;;;;;;4897769;29;20745;-40
2022/11/04 14:09:42;;;;;;;0.63;0.63;;;;;;;;;;4896472;29;20033;-39
2022/11/04 14:12:08;;;;;;;2.55;0.22;;;;;;;;;;4897645;29;20032;-40
2022/11/04 14:14:34;;;;;;;0.32;0.30;;;;;;;;;;4897543;29;20387;-40
2022/11/04 14:17:03;;;;;;;1.38;0.43;;;;;;;;;;4897506;29;20419;-39
2022/11/04 14:19:57;;;;;;;0.20;0.10;;;;;;;;;;4897460;29;20464;-40
2022/11/04 14:22:27;;;;;;;0.65;0.50;;;;;;;;;;4872518;29;20440;-39
2022/11/04 14:24:55;;;;;;;0.10;0.10;;;;;;;;;;4897275;29;20040;-40
2022/11/04 14:27:25;;;;;;;0.60;0.30;;;;;;;;;;4897310;29;20033;-39
2022/11/04 14:29:51;;;;;;;2.40;0.17;;;;;;;;;;4897345;29;20120;-40
2022/11/04 14:32:22;;;;;;;5.18;0.20;;;;;;;;;;4897524;29;20040;-39
2022/11/04 14:34:55;;;;;;;0.25;0.20;;;;;;;;;;4897434;29;20495;-40
2022/11/04 14:37:24;;;;;;;2.65;0.28;;;;;;;;;;4895923;29;20494;-40
2022/11/04 14:39:56;;;;;;;0.30;0.10;;;;;;;;;;4896324;29;20065;-40
2022/11/04 14:42:40;;;;;;;0.45;0.45;;;;;;;;;;4896830;29;20040;-40
2022/11/04 14:45:07;;;;;;;0.43;0.10;;;;;;;;;;4897047;29;20040;-40
2022/11/04 14:47:36;;;;;;;0.10;0.10;;;;;;;;;;4896683;29;20058;-40
2022/11/04 14:50:04;;;;;;;0.10;0.10;;;;;;;;;;4897203;29;20032;-40
2022/11/04 14:52:43;;;;;;;0.40;0.30;;;;;;;;;;4896898;29;20031;-40
2022/11/04 14:55:09;;;;;;;0.77;0.17;;;;;;;;;;4897073;29;20365;-40
2022/11/04 14:57:39;;;;;;;2.83;0.22;;;;;;;;;;4896760;29;20035;-41
2022/11/04 15:00:24;;;;;;;0.03;0.00;;;;;;;;;;4896838;29;20063;-40
2022/11/04 15:03:11;;;;;;;0.73;0.20;;;;;;;;;;4896686;29;20065;-41
2022/11/04 15:05:38;;;;;;;0.45;0.45;;;;;;;;;;4896558;29;20081;-40
2022/11/04 15:08:22;;;;;;;0.10;0.10;;;;;;;;;;4896935;29;20092;-40
2022/11/04 15:10:48;;;;;;;0.85;0.17;;;;;;;;;;4896576;29;20402;-40
2022/11/04 15:13:17;;;;;;;3.03;0.30;;;;;;;;;;4896834;29;20092;-39
2022/11/04 15:15:44;;;;;;;0.40;0.20;;;;;;;;;;4896659;29;20041;-40
2022/11/04 15:18:19;;;;;;;1.00;0.20;;;;;;;;;;4896544;29;20565;-39
2022/11/04 15:20:47;;;;;;;0.35;0.15;;;;;;;;;;4896652;29;20037;-40
2022/11/04 15:23:14;;;;;;;0.38;0.20;;;;;;;;;;4896690;29;20095;-40
2022/11/04 15:25:47;;;;;;;2.97;0.57;;;;;;;;;;4896437;29;20567;-40
2022/11/04 15:28:18;;;;;;;0.75;0.22;;;;;;;;;;4896681;29;20092;-40
2022/11/04 15:30:55;;;;;;;0.10;0.10;;;;;;;;;;4896740;29;20041;-40